This is the latest recevied weather packets stored in our database for station/object N9OJR. If no packets are shown the sender has not sent any weather packets the latest 1 day(s).
| Time | Temp. | Humidity | Pressure | Rain* | Wind** | Luminosity | Snow |
|---|---|---|---|---|---|---|---|
| 1778011400 | 18.33° C | 75% | 1004 hPa | 0 mm | 0 m/s | 17 W/m² | - |
| 1778011095 | 18.33° C | 76% | 1003.8 hPa | 0 mm | 0 m/s | 27 W/m² | - |
| 1778010793 | 18.33° C | 75% | 1003.8 hPa | 0 mm | 0 m/s | 36 W/m² | - |
| 1778010490 | 18.33° C | 74% | 1003.7 hPa | 0 mm | 0 m/s | 42 W/m² | - |
| 1778010187 | 18.33° C | 75% | 1004.1 hPa | 0 mm | 0.45 m/s, 257° | 42 W/m² | - |
| 1778009882 | 18.33° C | 74% | 1004 hPa | 0 mm | 0 m/s | 33 W/m² | - |
| 1778009580 | 18.89° C | 74% | 1003.9 hPa | 0 mm | 0.89 m/s, 319° | 39 W/m² | - |
| 1778009278 | 18.89° C | 73% | 1004.1 hPa | 0 mm | 0.45 m/s, 304° | 32 W/m² | - |
| 1778008976 | 18.89° C | 71% | 1004 hPa | 0 mm | 0 m/s | 35 W/m² | - |
| 1778008674 | 19.44° C | 71% | 1004.1 hPa | 0 mm | 0.45 m/s, 261° | 57 W/m² | - |
| 1778008372 | 19.44° C | 70% | 1004.1 hPa | 0 mm | 0.45 m/s, 302° | 77 W/m² | - |
| 1778008068 | 20° C | 70% | 1003.9 hPa | 0 mm | 0 m/s | 167 W/m² | - |
| 1778007763 | 19.44° C | 69% | 1004 hPa | 0 mm | 0 m/s | 189 W/m² | - |
| 1778007459 | 18.89° C | 71% | 1004.1 hPa | 0 mm | 1.34 m/s, 147° | 160 W/m² | - |
| 1778007156 | 18.89° C | 70% | 1004.1 hPa | 0 mm | 0.89 m/s, 197° | 65 W/m² | - |
| 1778006852 | 18.89° C | 71% | 1004.2 hPa | 0 mm | 0.45 m/s, 248° | 71 W/m² | - |
| 1778006550 | 19.44° C | 70% | 1004.3 hPa | 0 mm | 0.45 m/s, 178° | 82 W/m² | - |
| 1778006246 | 19.44° C | 70% | 1004.7 hPa | 0 mm | 0.89 m/s, 231° | 138 W/m² | - |
| 1778005951 | 19.44° C | 70% | 1004.6 hPa | 0 mm | 0.89 m/s, 116° | 170 W/m² | - |
| 1778005640 | 19.44° C | 70% | 1004.7 hPa | 0 mm | 1.34 m/s, 267° | 236 W/m² | - |
| 1778005337 | 19.44° C | 71% | 1005 hPa | 0 mm | 0.45 m/s, 126° | 210 W/m² | - |
| 1778005033 | 18.89° C | 71% | 1004.7 hPa | 0 mm | 0.45 m/s, 327° | 203 W/m² | - |
| 1778004731 | 18.89° C | 71% | 1004.8 hPa | 0 mm | 0.45 m/s, 66° | 128 W/m² | - |
| 1778004427 | 18.89° C | 71% | 1005 hPa | 0 mm | 0.45 m/s, 229° | 122 W/m² | - |
| 1778004124 | 18.89° C | 71% | 1004.7 hPa | 0 mm | 0.45 m/s, 118° | 91 W/m² | - |
* Rain latest hour (hover to see other rain measurements)
** Current wind speed in m/s (hover to see current wind gust speed)